createdAt,value
2022-09-27T00:02:05.124Z,990.43
2022-09-27T00:08:24.993Z,990.45
2022-09-27T00:14:48.017Z,990.55
2022-09-27T00:21:07.975Z,990.63
2022-09-27T00:27:30.989Z,990.67
2022-09-27T00:33:51.015Z,990.75
2022-09-27T00:40:17.435Z,990.81
2022-09-27T00:46:34.036Z,990.83
2022-09-27T00:52:57.061Z,990.94
2022-09-27T00:59:17.153Z,990.98
2022-09-27T01:05:39.997Z,991.04
2022-09-27T01:11:59.995Z,991.1
2022-09-27T01:18:22.987Z,991.12
2022-09-27T01:24:42.990Z,991.16
2022-09-27T01:31:06.075Z,991.18
2022-09-27T01:37:26.011Z,991.18
2022-09-27T01:43:49.000Z,991.22
2022-09-27T01:50:09.030Z,991.22
2022-09-27T01:56:31.961Z,991.26
2022-09-27T02:02:52.113Z,991.26
2022-09-27T02:09:15.184Z,991.3
2022-09-27T02:15:35.055Z,991.35
2022-09-27T02:21:58.012Z,991.37
2022-09-27T02:28:18.002Z,991.41
2022-09-27T02:34:40.999Z,991.43
2022-09-27T02:41:01.018Z,991.47
2022-09-27T02:47:24.032Z,991.49
2022-09-27T02:53:43.986Z,991.51
2022-09-27T03:00:06.997Z,991.57
2022-09-27T03:06:27.002Z,991.59
2022-09-27T03:12:49.982Z,991.61
2022-09-27T03:19:10.129Z,991.63
2022-09-27T03:41:58.029Z,991.9
2022-09-27T03:48:24.553Z,991.92
2022-09-27T03:54:40.989Z,991.96
2022-09-27T04:01:04.036Z,992
2022-09-27T04:07:24.027Z,992.06
2022-09-27T04:13:47.031Z,992.06
2022-09-27T04:20:07.007Z,992.1
2022-09-27T04:26:29.968Z,992.14
2022-09-27T04:32:49.969Z,992.16
2022-09-27T04:39:13.030Z,992.2
2022-09-27T04:45:32.965Z,992.22
2022-09-27T04:51:56.033Z,992.22
2022-09-27T04:58:16.022Z,992.27
2022-09-27T05:04:38.996Z,992.37
2022-09-27T05:10:58.989Z,992.41
2022-09-27T05:17:22.030Z,992.47
2022-09-27T05:23:43.673Z,992.63
2022-09-27T05:30:04.996Z,992.65
2022-09-27T05:36:25.017Z,992.65
2022-09-27T05:42:48.017Z,992.81
2022-09-27T05:49:08.009Z,992.93
2022-09-27T05:55:31.107Z,992.97
2022-09-27T06:01:51.095Z,993.02
2022-09-27T06:08:14.011Z,993.02
2022-09-27T06:14:34.035Z,993.06
2022-09-27T06:20:56.966Z,993.18
2022-09-27T06:27:16.978Z,993.24
2022-09-27T06:33:40.001Z,993.28
2022-09-27T06:40:00.005Z,993.36
2022-09-27T06:46:23.009Z,993.44
2022-09-27T06:52:43.044Z,993.48
2022-09-27T06:59:06.018Z,993.51
2022-09-27T07:05:25.971Z,993.57
2022-09-27T07:11:49.044Z,993.61
2022-09-27T07:18:08.994Z,993.69
2022-09-27T07:24:31.985Z,993.71
2022-09-27T07:30:52.063Z,993.71
2022-09-27T07:37:14.985Z,993.79
2022-09-27T07:43:34.980Z,993.81
2022-09-27T07:49:58.017Z,993.89
2022-09-27T07:56:17.974Z,993.95
2022-09-27T08:02:41.053Z,994.06
2022-09-27T08:09:01.005Z,994.12
2022-09-27T08:15:23.991Z,994.14
2022-09-27T08:21:44.006Z,994.12
2022-09-27T08:28:07.018Z,994.18
2022-09-27T08:49:57.996Z,994.26
2022-09-27T08:56:20.979Z,994.26
2022-09-27T09:02:41.005Z,994.24
2022-09-27T09:09:04.051Z,994.24
2022-09-27T09:15:24.108Z,994.24
2022-09-27T09:21:46.984Z,994.24
2022-09-27T09:28:07.252Z,994.24
2022-09-27T09:34:29.992Z,994.2
2022-09-27T09:40:51.260Z,994.14
2022-09-27T09:47:14.017Z,994.1
2022-09-27T09:53:33.992Z,994.04
2022-09-27T09:59:56.987Z,993.98
2022-09-27T10:06:17.027Z,993.91
2022-09-27T10:12:39.990Z,993.87
2022-09-27T10:18:59.984Z,993.83
2022-09-27T10:25:23.007Z,993.79
2022-09-27T10:31:43.110Z,993.79
2022-09-27T10:38:05.988Z,993.81
2022-09-27T10:44:26.022Z,993.83
2022-09-27T10:50:52.169Z,993.77
2022-09-27T10:57:08.984Z,993.73
2022-09-27T11:03:32.031Z,993.75
2022-09-27T11:09:51.990Z,993.71
2022-09-27T11:16:15.036Z,993.63
2022-09-27T11:22:35.038Z,993.59
2022-09-27T11:28:57.980Z,993.59
2022-09-27T11:35:17.989Z,993.57
2022-09-27T11:41:41.036Z,993.61
2022-09-27T11:48:01.110Z,993.63
2022-09-27T11:54:23.990Z,993.61
2022-09-27T12:00:44.019Z,993.57
2022-09-27T12:07:06.995Z,993.55
2022-09-27T12:13:26.986Z,993.53
2022-09-27T12:19:50.013Z,993.53
2022-09-27T12:26:10.005Z,993.48
2022-09-27T12:32:32.991Z,993.42
2022-09-27T12:38:53.049Z,993.44
2022-09-27T12:45:15.982Z,993.44
2022-09-27T12:51:36.218Z,993.44
2022-09-27T12:57:59.065Z,993.46
2022-09-27T13:04:19.019Z,993.44
2022-09-27T13:10:41.994Z,993.46
2022-09-27T13:17:02.042Z,993.46
2022-09-27T13:23:24.996Z,993.46
2022-09-27T13:29:44.991Z,993.44
2022-09-27T13:36:08.272Z,993.46
2022-09-27T13:58:55.515Z,993.42
2022-09-27T14:05:14.989Z,993.49
2022-09-27T14:11:38.009Z,993.57
2022-09-27T14:17:57.996Z,993.63
2022-09-27T14:24:20.980Z,993.63
2022-09-27T14:30:41.010Z,993.61
2022-09-27T14:37:04.012Z,993.65
2022-09-27T14:43:23.998Z,993.65
2022-09-27T14:49:46.973Z,993.67
2022-09-27T14:56:07.023Z,993.71
2022-09-27T15:02:29.990Z,993.75
2022-09-27T15:08:49.989Z,993.83
2022-09-27T15:15:13.101Z,993.87
2022-09-27T15:21:32.975Z,993.89
2022-09-27T15:27:56.001Z,993.93
2022-09-27T15:34:16.122Z,993.93
2022-09-27T15:40:39.054Z,993.89
2022-09-27T15:46:59.053Z,993.87
2022-09-27T15:53:22.109Z,993.98
2022-09-27T15:59:41.996Z,994.06
2022-09-27T16:06:04.974Z,994.08
2022-09-27T16:12:25.015Z,994.1
2022-09-27T16:18:47.981Z,994.06
2022-09-27T16:25:08.005Z,994.06
2022-09-27T16:31:31.396Z,994.1
2022-09-27T16:37:50.977Z,994.12
2022-09-27T16:44:14.046Z,994.12
2022-09-27T16:50:34.030Z,994.08
2022-09-27T16:56:56.989Z,994.02
2022-09-27T17:03:16.989Z,993.95
2022-09-27T17:09:40.008Z,993.85
2022-09-27T17:16:00.012Z,993.79
2022-09-27T17:22:22.997Z,993.77
2022-09-27T17:28:43.020Z,993.77
2022-09-27T17:35:05.971Z,993.75
2022-09-27T17:41:25.996Z,993.79
2022-09-27T17:47:49.124Z,993.75
2022-09-27T17:54:09.002Z,993.73
2022-09-27T18:00:31.992Z,993.63
2022-09-27T18:06:52.015Z,993.57
2022-09-27T18:13:14.990Z,993.53
2022-09-27T18:19:34.966Z,993.51
2022-09-27T18:25:58.138Z,993.48
2022-09-27T18:32:17.969Z,993.44
2022-09-27T18:38:41.007Z,993.4
2022-09-27T18:45:01.007Z,993.34
2022-09-27T19:08:49.998Z,993.28
2022-09-27T19:15:13.006Z,993.36
2022-09-27T19:21:32.973Z,993.32
2022-09-27T19:27:56.010Z,993.26
2022-09-27T19:34:15.997Z,993.12
2022-09-27T19:40:39.063Z,993.01
2022-09-27T19:46:59.353Z,992.97
2022-09-27T19:53:21.981Z,992.93
2022-09-27T19:59:41.969Z,992.89
2022-09-27T20:06:05.017Z,992.85
2022-09-27T20:12:24.971Z,992.81
2022-09-27T20:18:47.997Z,992.77
2022-09-27T20:25:08.137Z,992.71
2022-09-27T20:31:31.055Z,992.55
2022-09-27T20:37:50.982Z,992.43
2022-09-27T20:44:14.001Z,992.29
2022-09-27T20:50:34.317Z,992.25
2022-09-27T20:56:57.018Z,992.18
2022-09-27T21:03:20.936Z,992.14
2022-09-27T21:09:39.982Z,992.08
2022-09-27T21:16:00.078Z,992.02
2022-09-27T21:22:23.005Z,992
2022-09-27T21:28:42.986Z,992
2022-09-27T21:35:06.007Z,991.98
2022-09-27T21:41:26.002Z,991.98
2022-09-27T21:47:48.997Z,991.94
2022-09-27T21:54:08.988Z,991.92
2022-09-27T22:19:43.007Z,991.71
2022-09-27T22:26:02.966Z,991.67
2022-09-27T22:32:25.998Z,991.53
2022-09-27T22:38:46.025Z,991.37
2022-09-27T22:45:08.986Z,991.31
2022-09-27T22:51:28.973Z,991.26
2022-09-27T22:57:52.009Z,991.16
2022-09-27T23:04:12.016Z,991.12
2022-09-27T23:10:34.985Z,991.04
2022-09-27T23:16:55.005Z,990.98
2022-09-27T23:23:18.007Z,990.9
2022-09-27T23:29:37.968Z,990.88
2022-09-27T23:36:01.005Z,990.83
2022-09-27T23:42:20.987Z,990.83
2022-09-27T23:48:43.987Z,990.73
2022-09-27T23:55:04.009Z,990.65
